createdAt,value
2022-11-01T00:01:57.425Z,100.00
2022-11-01T00:04:25.070Z,100.00
2022-11-01T00:06:52.513Z,100.00
2022-11-01T00:09:19.883Z,100.00
2022-11-01T00:11:47.243Z,100.00
2022-11-01T00:14:17.654Z,100.00
2022-11-01T00:16:45.182Z,100.00
2022-11-01T00:19:12.845Z,100.00
2022-11-01T00:21:40.264Z,97.57
2022-11-01T00:24:07.915Z,96.65
2022-11-01T00:26:35.337Z,94.14
2022-11-01T00:29:02.830Z,92.39
2022-11-01T00:31:31.536Z,89.74
2022-11-01T00:34:01.116Z,88.81
2022-11-01T00:36:28.451Z,87.74
2022-11-01T00:38:55.841Z,86.31
2022-11-01T00:41:23.175Z,85.74
2022-11-01T00:43:53.794Z,85.00
2022-11-01T00:46:21.154Z,83.89
2022-11-01T00:48:50.303Z,83.39
2022-11-01T00:51:17.643Z,83.14
2022-11-01T00:53:44.982Z,82.68
2022-11-01T00:56:12.277Z,82.36
2022-11-01T00:58:39.587Z,81.97
2022-11-01T01:01:07.019Z,81.38
2022-11-01T01:03:34.411Z,81.44
2022-11-01T01:06:03.196Z,81.59
2022-11-01T01:08:30.619Z,81.09
2022-11-01T01:10:57.959Z,81.06
2022-11-01T01:13:25.352Z,80.80
2022-11-01T01:15:52.666Z,81.07
2022-11-01T01:18:20.034Z,80.75
2022-11-01T01:20:47.380Z,80.56
2022-11-01T01:23:16.275Z,79.38
2022-11-01T01:25:43.835Z,78.60
2022-11-01T01:28:11.203Z,78.08
2022-11-01T01:30:40.931Z,76.75
2022-11-01T01:33:08.287Z,76.87
2022-11-01T01:35:35.736Z,76.20
2022-11-01T01:38:03.417Z,75.87
2022-11-01T01:40:32.380Z,76.17
2022-11-01T01:42:59.899Z,75.47
2022-11-01T01:45:33.795Z,75.30
2022-11-01T01:48:08.647Z,75.77
2022-11-01T01:50:38.580Z,75.32
2022-11-01T01:53:08.035Z,75.55
2022-11-01T01:55:41.389Z,74.93
2022-11-01T01:58:12.951Z,75.98
2022-11-01T02:00:40.991Z,75.20
2022-11-01T02:03:08.834Z,75.47
2022-11-01T02:05:40.387Z,75.50
2022-11-01T02:08:08.136Z,75.44
2022-11-01T02:10:35.802Z,76.02
2022-11-01T02:13:12.401Z,75.81
2022-11-01T02:15:45.402Z,75.62
2022-11-01T02:18:24.582Z,75.28
2022-11-01T02:21:23.470Z,75.68
2022-11-01T02:24:30.620Z,75.45
2022-11-01T02:27:15.269Z,75.49
2022-11-01T02:30:18.207Z,76.10
2022-11-01T02:32:54.404Z,75.55
2022-11-01T02:35:26.999Z,75.61
2022-11-01T02:37:56.806Z,75.40
2022-11-01T02:40:28.851Z,75.77
2022-11-01T02:42:59.960Z,75.52
2022-11-01T02:45:30.998Z,76.00
2022-11-01T02:48:00.952Z,75.65
2022-11-01T02:50:31.016Z,75.06
2022-11-01T02:52:59.031Z,75.15
2022-11-01T02:55:30.675Z,75.46
2022-11-01T02:58:00.396Z,75.86
2022-11-01T03:00:29.663Z,75.77
2022-11-01T03:03:02.230Z,75.33
2022-11-01T03:05:36.292Z,75.37
2022-11-01T03:08:06.116Z,76.01
2022-11-01T03:10:39.246Z,76.64
2022-11-01T03:13:15.028Z,76.45
2022-11-01T03:15:46.278Z,76.54
2022-11-01T03:18:21.804Z,77.15
2022-11-01T03:20:54.500Z,77.59
2022-11-01T03:23:26.676Z,77.48
2022-11-01T03:25:56.977Z,78.45
2022-11-01T03:28:28.352Z,78.15
2022-11-01T03:30:58.487Z,78.29
2022-11-01T03:33:27.624Z,78.68
2022-11-01T03:35:58.861Z,79.02
2022-11-01T03:38:28.094Z,79.61
2022-11-01T03:40:58.651Z,79.54
2022-11-01T03:43:27.712Z,80.36
2022-11-01T03:45:55.627Z,79.95
2022-11-01T03:48:27.177Z,79.90
2022-11-01T03:50:56.133Z,80.01
2022-11-01T03:53:24.177Z,79.98
2022-11-01T03:55:51.587Z,80.39
2022-11-01T03:58:19.294Z,80.54
2022-11-01T04:00:47.310Z,80.65
2022-11-01T04:03:14.949Z,80.49
2022-11-01T04:05:43.772Z,80.82
2022-11-01T04:08:12.095Z,81.26
2022-11-01T04:10:39.468Z,81.24
2022-11-01T04:13:06.862Z,81.94
2022-11-01T04:15:51.898Z,81.82
2022-11-01T04:18:38.310Z,81.60
2022-11-01T04:21:09.387Z,82.09
2022-11-01T04:23:36.856Z,82.00
2022-11-01T04:26:06.003Z,81.81
2022-11-01T04:28:33.416Z,81.62
2022-11-01T04:31:00.784Z,81.52
2022-11-01T04:33:28.150Z,82.24
2022-11-01T04:35:55.497Z,82.42
2022-11-01T04:38:24.332Z,82.89
2022-11-01T04:40:51.707Z,83.29
2022-11-01T04:43:19.027Z,83.38
2022-11-01T04:45:54.547Z,83.52
2022-11-01T04:48:22.087Z,83.75
2022-11-01T04:50:49.530Z,83.61
2022-11-01T04:53:16.922Z,83.39
2022-11-01T04:55:45.802Z,83.80
2022-11-01T04:58:14.545Z,84.44
2022-11-01T05:00:43.698Z,85.08
2022-11-01T05:03:12.134Z,84.75
2022-11-01T05:05:40.190Z,85.18
2022-11-01T05:08:09.275Z,85.68
2022-11-01T05:10:37.817Z,86.66
2022-11-01T05:13:06.800Z,86.06
2022-11-01T05:15:36.913Z,85.71
2022-11-01T05:18:07.369Z,85.82
2022-11-01T05:20:34.747Z,85.29
2022-11-01T05:23:06.305Z,86.28
2022-11-01T05:25:37.932Z,86.60
2022-11-01T05:28:09.316Z,87.09
2022-11-01T05:30:37.713Z,86.82
2022-11-01T05:33:06.255Z,86.90
2022-11-01T05:35:34.649Z,87.58
2022-11-01T05:38:02.678Z,87.20
2022-11-01T05:40:30.582Z,86.63
2022-11-01T05:42:58.192Z,87.47
2022-11-01T05:45:27.190Z,87.15
2022-11-01T05:47:54.679Z,86.55
2022-11-01T05:50:22.054Z,87.09
2022-11-01T05:52:49.912Z,87.42
2022-11-01T05:55:17.307Z,87.77
2022-11-01T05:57:44.759Z,87.42
2022-11-01T06:00:13.410Z,87.84
2022-11-01T06:02:42.465Z,88.81
2022-11-01T06:05:11.085Z,88.67
2022-11-01T06:07:38.419Z,88.49
2022-11-01T06:10:06.948Z,88.97
2022-11-01T06:12:34.324Z,88.73
2022-11-01T06:15:01.657Z,88.65
2022-11-01T06:17:29.067Z,88.29
2022-11-01T06:19:58.225Z,88.49
2022-11-01T06:22:26.601Z,88.70
2022-11-01T06:24:54.239Z,88.58
2022-11-01T06:27:21.635Z,88.25
2022-11-01T06:29:51.360Z,88.21
2022-11-01T06:32:18.727Z,88.32
2022-11-01T06:34:46.076Z,88.46
2022-11-01T06:37:14.917Z,88.54
2022-11-01T06:39:42.334Z,88.20
2022-11-01T06:42:11.128Z,88.10
2022-11-01T06:44:38.452Z,87.90
2022-11-01T06:47:05.839Z,88.49
2022-11-01T06:49:33.331Z,88.27
2022-11-01T06:52:00.672Z,88.13
2022-11-01T06:54:29.560Z,87.37
2022-11-01T06:56:57.011Z,86.63
2022-11-01T06:59:25.000Z,87.46
2022-11-01T07:01:52.941Z,87.31
2022-11-01T07:04:21.140Z,86.94
2022-11-01T07:06:48.495Z,87.42
2022-11-01T07:09:15.859Z,87.58
2022-11-01T07:11:44.786Z,87.33
2022-11-01T07:14:12.295Z,87.16
2022-11-01T07:16:39.828Z,86.84
2022-11-01T07:19:07.414Z,87.38
2022-11-01T07:21:34.741Z,86.85
2022-11-01T07:24:02.095Z,87.15
2022-11-01T07:26:29.431Z,87.04
2022-11-01T07:28:58.111Z,87.25
2022-11-01T07:31:25.458Z,87.34
2022-11-01T07:33:52.851Z,86.97
2022-11-01T07:36:20.181Z,87.18
2022-11-01T07:38:47.526Z,87.88
2022-11-01T07:41:14.919Z,87.20
2022-11-01T07:43:43.548Z,87.95
2022-11-01T07:46:12.287Z,86.44
2022-11-01T07:48:39.755Z,86.24
2022-11-01T07:51:09.468Z,86.86
2022-11-01T07:53:36.843Z,86.61
2022-11-01T07:56:04.711Z,86.82
2022-11-01T07:58:32.228Z,86.63
2022-11-01T08:01:01.213Z,86.59
2022-11-01T08:03:30.759Z,86.63
2022-11-01T08:05:58.119Z,87.15
2022-11-01T08:08:25.728Z,86.69
2022-11-01T08:10:53.118Z,86.50
2022-11-01T08:13:21.996Z,86.54
2022-11-01T08:15:50.326Z,86.01
2022-11-01T08:18:21.368Z,85.21
2022-11-01T08:20:50.315Z,85.01
2022-11-01T08:23:17.935Z,86.04
2022-11-01T08:25:45.557Z,84.94
2022-11-01T08:28:15.120Z,85.62
2022-11-01T08:30:43.828Z,85.05
2022-11-01T08:33:11.613Z,84.48
2022-11-01T08:35:39.359Z,85.71
2022-11-01T08:38:08.104Z,85.75
2022-11-01T08:40:35.446Z,86.27
2022-11-01T08:43:03.291Z,85.86
2022-11-01T08:45:30.860Z,86.05
2022-11-01T08:47:59.371Z,86.01
2022-11-01T08:50:27.584Z,83.05
2022-11-01T08:52:56.111Z,82.07
2022-11-01T08:55:24.887Z,79.88
2022-11-01T08:57:52.297Z,80.68
2022-11-01T09:00:21.270Z,78.51
2022-11-01T09:02:48.602Z,78.33
2022-11-01T09:05:16.279Z,76.58
2022-11-01T09:07:43.730Z,77.33
2022-11-01T09:10:11.772Z,76.80
2022-11-01T09:15:08.276Z,75.04
2022-11-01T09:17:35.743Z,75.09
2022-11-01T09:20:04.019Z,74.73
2022-11-01T09:22:31.430Z,74.42
2022-11-01T09:24:58.815Z,73.41
2022-11-01T09:27:26.403Z,72.41
2022-11-01T09:29:55.135Z,72.60
2022-11-01T09:32:22.876Z,71.83
2022-11-01T09:34:50.323Z,70.03
2022-11-01T09:37:19.748Z,70.22
2022-11-01T09:39:47.155Z,68.26
2022-11-01T09:42:21.783Z,69.25
2022-11-01T09:44:50.774Z,66.78
2022-11-01T09:47:22.375Z,68.65
2022-11-01T09:49:52.563Z,65.52
2022-11-01T09:52:21.473Z,63.34
2022-11-01T09:54:49.585Z,62.53
2022-11-01T09:57:21.675Z,62.83
2022-11-01T09:59:59.903Z,62.74
2022-11-01T10:02:57.988Z,62.73
2022-11-01T10:05:41.928Z,61.30
2022-11-01T10:08:14.731Z,60.54
2022-11-01T10:10:48.404Z,61.44
2022-11-01T10:13:30.543Z,60.34
2022-11-01T10:16:03.369Z,58.70
2022-11-01T10:18:33.363Z,60.80
2022-11-01T10:21:02.987Z,60.06
2022-11-01T10:23:36.635Z,60.08
2022-11-01T10:26:05.787Z,57.99
2022-11-01T10:28:40.513Z,60.79
2022-11-01T10:31:12.852Z,59.04
2022-11-01T10:33:44.644Z,58.18
2022-11-01T10:36:17.023Z,59.13
2022-11-01T10:41:39.018Z,60.43
2022-11-01T10:44:11.522Z,58.14
2022-11-01T10:46:41.006Z,57.59
2022-11-01T10:49:24.268Z,57.46
2022-11-01T10:51:58.067Z,57.41
2022-11-01T10:54:29.049Z,58.37
2022-11-01T10:57:00.606Z,58.58
2022-11-01T10:59:35.394Z,59.19
2022-11-01T11:02:05.930Z,56.53
2022-11-01T11:04:34.782Z,56.46
2022-11-01T11:07:02.344Z,56.86
2022-11-01T11:09:32.647Z,58.29
2022-11-01T11:12:03.482Z,57.60
2022-11-01T11:14:32.740Z,57.52
2022-11-01T11:17:01.109Z,57.19
2022-11-01T11:19:35.027Z,55.92
2022-11-01T11:22:06.362Z,58.25
2022-11-01T11:24:35.884Z,57.68
2022-11-01T11:27:04.719Z,56.42
2022-11-01T11:29:40.904Z,56.79
2022-11-01T11:32:14.968Z,57.59
2022-11-01T11:34:43.816Z,55.02
2022-11-01T11:37:20.139Z,56.80
2022-11-01T11:40:01.621Z,56.52
2022-11-01T11:42:30.271Z,57.26
2022-11-01T11:45:16.856Z,55.30
2022-11-01T11:47:44.387Z,57.04
2022-11-01T11:50:25.811Z,58.96
2022-11-01T11:52:59.203Z,56.92
2022-11-01T11:55:37.170Z,56.23
2022-11-01T11:58:14.225Z,57.20
2022-11-01T12:00:44.661Z,57.40
2022-11-01T12:03:14.374Z,59.45
2022-11-01T12:05:52.211Z,58.75
2022-11-01T12:08:26.956Z,57.04
2022-11-01T12:10:58.930Z,57.84
2022-11-01T12:13:32.941Z,62.46
2022-11-01T12:16:20.113Z,60.83
2022-11-01T12:18:49.332Z,60.11
2022-11-01T12:21:22.015Z,60.45
2022-11-01T12:23:52.147Z,61.13
2022-11-01T12:26:22.834Z,61.11
2022-11-01T12:28:58.639Z,61.64
2022-11-01T12:31:31.013Z,59.46
2022-11-01T12:34:04.417Z,60.20
2022-11-01T12:36:37.072Z,61.01
2022-11-01T12:39:08.957Z,61.64
2022-11-01T12:41:40.290Z,61.78
2022-11-01T12:44:24.828Z,59.14
2022-11-01T12:46:56.124Z,62.07
2022-11-01T12:49:29.602Z,62.03
2022-11-01T12:52:03.007Z,60.38
2022-11-01T12:54:34.458Z,60.33
2022-11-01T12:57:02.336Z,60.00
2022-11-01T12:59:38.127Z,61.64
2022-11-01T13:02:20.720Z,62.43
2022-11-01T13:04:52.048Z,60.43
2022-11-01T13:07:32.959Z,62.10
2022-11-01T13:10:08.882Z,60.50
2022-11-01T13:12:42.374Z,60.09
2022-11-01T13:15:28.373Z,61.75
2022-11-01T13:18:02.906Z,60.91
2022-11-01T13:20:36.345Z,60.57
2022-11-01T13:23:16.955Z,61.49
2022-11-01T13:25:49.109Z,63.43
2022-11-01T13:28:27.161Z,59.79
2022-11-01T13:30:57.962Z,60.68
2022-11-01T13:33:32.880Z,61.83
2022-11-01T13:36:02.638Z,60.39
2022-11-01T13:38:36.226Z,61.27
2022-11-01T13:41:10.567Z,60.95
2022-11-01T13:43:41.499Z,63.14
2022-11-01T13:46:26.365Z,61.10
2022-11-01T13:49:22.208Z,61.73
2022-11-01T13:51:55.073Z,62.14
2022-11-01T13:54:27.230Z,61.50
2022-11-01T13:56:57.212Z,61.97
2022-11-01T13:59:32.963Z,60.91
2022-11-01T14:02:37.973Z,59.75
2022-11-01T14:05:08.471Z,60.15
2022-11-01T14:07:37.127Z,60.16
2022-11-01T14:10:12.039Z,64.38
2022-11-01T14:12:44.803Z,60.10
2022-11-01T14:15:22.390Z,59.19
2022-11-01T14:18:07.343Z,59.56
2022-11-01T14:20:47.912Z,60.68
2022-11-01T14:23:51.093Z,60.58
2022-11-01T14:26:39.679Z,61.49
2022-11-01T14:29:11.637Z,61.07
2022-11-01T14:31:39.825Z,60.42
2022-11-01T14:34:08.972Z,61.58
2022-11-01T14:36:39.623Z,63.24
2022-11-01T14:39:10.340Z,60.94
2022-11-01T14:41:40.905Z,62.29
2022-11-01T14:44:13.362Z,62.70
2022-11-01T14:46:46.542Z,61.79
2022-11-01T14:49:25.133Z,59.55
2022-11-01T14:51:57.688Z,63.37
2022-11-01T14:54:29.563Z,64.28
2022-11-01T14:57:01.763Z,61.82
2022-11-01T14:59:31.954Z,63.26
2022-11-01T15:02:03.032Z,63.94
2022-11-01T15:04:32.645Z,63.64
2022-11-01T15:07:01.268Z,62.53
2022-11-01T15:09:30.678Z,62.57
2022-11-01T15:12:07.185Z,62.14
2022-11-01T15:14:37.022Z,63.24
2022-11-01T15:17:04.589Z,63.66
2022-11-01T15:19:34.653Z,63.96
2022-11-01T15:22:03.696Z,64.26
2022-11-01T15:24:32.969Z,63.22
2022-11-01T15:27:06.489Z,63.92
2022-11-01T15:29:34.732Z,63.81
2022-11-01T15:32:02.325Z,63.64
2022-11-01T15:34:30.703Z,65.75
2022-11-01T15:36:59.451Z,64.64
2022-11-01T15:39:31.314Z,64.71
2022-11-01T15:41:58.788Z,64.76
2022-11-01T15:44:29.709Z,65.95
2022-11-01T15:46:59.768Z,64.70
2022-11-01T15:49:30.536Z,65.00
2022-11-01T15:52:00.309Z,66.18
2022-11-01T15:54:36.943Z,66.24
2022-11-01T15:57:13.415Z,65.74
2022-11-01T15:59:49.743Z,65.90
2022-11-01T16:02:20.538Z,66.49
2022-11-01T16:04:48.149Z,66.60
2022-11-01T16:07:18.149Z,66.87
2022-11-01T16:09:47.636Z,66.66
2022-11-01T16:12:18.771Z,67.28
2022-11-01T16:14:52.104Z,67.14
2022-11-01T16:17:25.624Z,67.57
2022-11-01T16:19:53.648Z,67.69
2022-11-01T16:22:33.728Z,67.50
2022-11-01T16:25:06.314Z,67.84
2022-11-01T16:27:35.705Z,68.13
2022-11-01T16:30:11.263Z,67.25
2022-11-01T16:32:38.788Z,67.63
2022-11-01T16:35:30.619Z,66.83
2022-11-01T16:37:58.003Z,67.12
2022-11-01T16:40:27.455Z,67.77
2022-11-01T16:42:56.053Z,66.85
2022-11-01T16:45:24.769Z,67.05
2022-11-01T16:47:57.973Z,67.20
2022-11-01T16:50:26.176Z,66.81
2022-11-01T16:52:53.552Z,66.19
2022-11-01T16:55:24.069Z,66.23
2022-11-01T16:57:54.664Z,66.20
2022-11-01T17:00:22.292Z,65.61
2022-11-01T17:02:51.311Z,65.63
2022-11-01T17:05:20.921Z,66.49
2022-11-01T17:07:48.787Z,66.06
2022-11-01T17:10:17.903Z,65.39
2022-11-01T17:12:45.332Z,66.38
2022-11-01T17:15:13.072Z,66.85
2022-11-01T17:17:41.019Z,67.39
2022-11-01T17:20:14.555Z,67.69
2022-11-01T17:22:42.389Z,68.41
2022-11-01T17:25:15.971Z,68.13
2022-11-01T17:27:43.632Z,68.17
2022-11-01T17:30:11.915Z,67.50
2022-11-01T17:32:39.288Z,68.59
2022-11-01T17:35:07.577Z,67.46
2022-11-01T17:37:36.740Z,66.86
2022-11-01T17:40:04.748Z,67.44
2022-11-01T17:42:32.180Z,67.04
2022-11-01T17:44:59.602Z,66.37
2022-11-01T17:47:27.282Z,66.39
2022-11-01T17:49:54.671Z,66.06
2022-11-01T17:52:22.071Z,66.15
2022-11-01T17:54:50.860Z,65.53
2022-11-01T17:57:18.219Z,66.15
2022-11-01T17:59:45.711Z,66.16
2022-11-01T18:02:13.246Z,66.74
2022-11-01T18:04:40.815Z,66.01
2022-11-01T18:07:10.259Z,64.49
2022-11-01T18:09:38.069Z,64.86
2022-11-01T18:12:11.777Z,65.60
2022-11-01T18:14:48.426Z,65.24
2022-11-01T18:17:27.019Z,64.71
2022-11-01T18:19:57.935Z,65.23
2022-11-01T18:22:32.415Z,65.01
2022-11-01T18:25:03.116Z,65.31
2022-11-01T18:27:35.852Z,64.88
2022-11-01T18:30:12.476Z,64.92
2022-11-01T18:32:43.008Z,65.47
2022-11-01T18:35:20.608Z,66.35
2022-11-01T18:38:03.957Z,66.76
2022-11-01T18:40:41.948Z,67.58
2022-11-01T18:43:10.778Z,67.70
2022-11-01T18:45:57.768Z,68.49
2022-11-01T18:48:28.645Z,68.21
2022-11-01T18:51:04.661Z,68.56
2022-11-01T18:53:34.193Z,69.90
2022-11-01T18:56:17.099Z,69.84
2022-11-01T18:58:45.930Z,69.95
2022-11-01T19:01:14.826Z,69.94
2022-11-01T19:03:42.534Z,70.52
2022-11-01T19:06:17.623Z,70.69
2022-11-01T19:08:50.240Z,71.23
2022-11-01T19:11:19.155Z,71.42
2022-11-01T19:13:49.807Z,71.44
2022-11-01T19:16:20.526Z,71.88
2022-11-01T19:18:50.238Z,71.67
2022-11-01T19:21:21.470Z,72.16
2022-11-01T19:23:52.509Z,72.03
2022-11-01T19:26:27.771Z,72.24
2022-11-01T19:29:00.897Z,72.82
2022-11-01T19:31:32.945Z,73.03
2022-11-01T19:34:05.466Z,72.93
2022-11-01T19:39:34.454Z,72.78
2022-11-01T19:42:15.497Z,73.08
2022-11-01T19:44:47.979Z,73.53
2022-11-01T19:47:30.930Z,73.94
2022-11-01T19:50:03.519Z,73.62
2022-11-01T19:52:37.623Z,74.20
2022-11-01T19:55:34.376Z,74.27
2022-11-01T19:58:05.706Z,74.44
2022-11-01T20:00:37.419Z,74.92
2022-11-01T20:03:11.940Z,74.66
2022-11-01T20:05:48.452Z,75.02
2022-11-01T20:08:23.155Z,75.06
2022-11-01T20:10:53.123Z,75.21
2022-11-01T20:13:23.293Z,75.23
2022-11-01T20:15:54.935Z,75.45
2022-11-01T20:18:24.444Z,75.03
2022-11-01T20:20:54.573Z,74.65
2022-11-01T20:23:27.032Z,75.29
2022-11-01T20:25:58.865Z,74.97
2022-11-01T20:28:28.699Z,74.93
2022-11-01T20:31:00.349Z,75.89
2022-11-01T20:33:31.011Z,76.02
2022-11-01T20:36:00.842Z,76.43
2022-11-01T20:38:30.383Z,76.03
2022-11-01T20:41:01.102Z,75.45
2022-11-01T20:43:32.408Z,75.89
2022-11-01T20:46:08.315Z,76.76
2022-11-01T20:48:38.114Z,76.63
2022-11-01T20:51:07.835Z,76.62
2022-11-01T20:53:38.311Z,76.85
2022-11-01T20:56:08.162Z,76.61
2022-11-01T20:58:40.807Z,76.47
2022-11-01T21:01:19.849Z,76.12
2022-11-01T21:03:49.404Z,76.96
2022-11-01T21:06:19.648Z,76.72
2022-11-01T21:08:49.028Z,77.53
2022-11-01T21:11:24.070Z,77.15
2022-11-01T21:13:53.814Z,77.24
2022-11-01T21:16:32.656Z,77.48
2022-11-01T21:19:03.223Z,77.49
2022-11-01T21:21:46.217Z,77.32
2022-11-01T21:24:32.102Z,77.50
2022-11-01T21:27:02.564Z,77.34
2022-11-01T21:29:30.575Z,77.45
2022-11-01T21:31:59.692Z,77.45
2022-11-01T21:34:29.435Z,76.95
2022-11-01T21:36:57.722Z,77.44
2022-11-01T21:39:26.945Z,77.23
2022-11-01T21:41:55.903Z,78.03
2022-11-01T21:44:29.591Z,77.42
2022-11-01T21:47:02.426Z,78.09
2022-11-01T21:49:31.508Z,77.26
2022-11-01T21:52:00.931Z,77.76
2022-11-01T21:54:29.287Z,77.70
2022-11-01T21:56:57.108Z,76.91
2022-11-01T21:59:24.569Z,77.71
2022-11-01T22:01:52.068Z,77.36
2022-11-01T22:04:23.500Z,77.41
2022-11-01T22:06:53.629Z,77.70
2022-11-01T22:09:21.301Z,77.42
2022-11-01T22:11:48.798Z,77.79
2022-11-01T22:14:16.265Z,77.72
2022-11-01T22:16:43.639Z,77.69
2022-11-01T22:19:11.357Z,77.67
2022-11-01T22:21:40.180Z,77.70
2022-11-01T22:24:08.324Z,78.18
2022-11-01T22:26:35.827Z,77.72
2022-11-01T22:29:03.179Z,77.71
2022-11-01T22:31:30.599Z,77.52
2022-11-01T22:33:59.083Z,78.11
2022-11-01T22:36:27.667Z,78.19
2022-11-01T22:38:57.791Z,77.95
2022-11-01T22:41:30.070Z,77.88
2022-11-01T22:44:05.058Z,77.87
2022-11-01T22:46:39.041Z,78.16
2022-11-01T22:49:12.711Z,78.06
2022-11-01T22:51:43.543Z,78.51
2022-11-01T22:54:27.271Z,78.78
2022-11-01T22:56:59.647Z,78.52
2022-11-01T22:59:32.895Z,78.65
2022-11-01T23:02:06.586Z,78.75
2022-11-01T23:04:35.095Z,79.07
2022-11-01T23:07:05.370Z,79.34
2022-11-01T23:09:34.078Z,79.01
2022-11-01T23:12:19.247Z,79.15
2022-11-01T23:14:46.941Z,78.24
2022-11-01T23:17:16.850Z,78.57
2022-11-01T23:19:44.236Z,79.57
2022-11-01T23:22:14.519Z,79.21
2022-11-01T23:24:43.391Z,79.13
2022-11-01T23:27:10.756Z,79.65
2022-11-01T23:29:38.115Z,79.70
2022-11-01T23:32:05.647Z,79.22
2022-11-01T23:34:33.309Z,79.21
2022-11-01T23:37:00.684Z,79.57
2022-11-01T23:39:32.932Z,79.16
2022-11-01T23:42:01.867Z,79.31
2022-11-01T23:44:31.352Z,79.78
2022-11-01T23:47:00.801Z,79.17
2022-11-01T23:49:30.987Z,79.15
2022-11-01T23:51:58.874Z,78.90
2022-11-01T23:54:34.111Z,78.69
2022-11-01T23:57:03.044Z,78.99
2022-11-01T23:59:30.451Z,78.64
